createdAt,value
2023-02-24T00:03:30.961Z,11.80
2023-02-24T00:08:32.336Z,11.70
2023-02-24T00:13:35.343Z,11.58
2023-02-24T00:18:36.702Z,11.51
2023-02-24T00:23:38.346Z,11.52
2023-02-24T00:28:40.487Z,11.40
2023-02-24T00:33:44.253Z,11.31
2023-02-24T00:38:47.115Z,11.18
2023-02-24T00:43:50.179Z,11.05
2023-02-24T00:48:56.459Z,11.05
2023-02-24T00:53:57.994Z,11.00
2023-02-24T00:59:00.474Z,10.87
2023-02-24T01:04:08.043Z,10.81
2023-02-24T01:09:14.629Z,10.74
2023-02-24T01:14:19.357Z,10.76
2023-02-24T01:19:23.998Z,10.77
2023-02-24T01:24:25.968Z,10.81
2023-02-24T01:29:27.405Z,10.87
2023-02-24T01:34:28.733Z,10.77
2023-02-24T01:39:30.228Z,10.73
2023-02-24T01:44:32.738Z,10.51
2023-02-24T01:49:37.952Z,10.34
2023-02-24T01:54:46.045Z,10.23
2023-02-24T01:59:51.052Z,10.17
2023-02-24T02:05:01.809Z,10.16
2023-02-24T02:10:03.976Z,10.17
2023-02-24T02:15:07.582Z,10.18
2023-02-24T02:20:36.682Z,10.18
2023-02-24T02:26:02.795Z,10.07
2023-02-24T02:31:41.122Z,10.34
2023-02-24T02:36:54.730Z,10.44
2023-02-24T02:42:07.019Z,10.65
2023-02-24T02:47:20.251Z,10.81
2023-02-24T02:52:31.794Z,10.93
2023-02-24T02:57:38.003Z,10.98
2023-02-24T03:02:45.351Z,10.96
2023-02-24T03:07:54.537Z,11.04
2023-02-24T03:12:59.546Z,11.09
2023-02-24T03:18:10.134Z,11.13
2023-02-24T03:23:16.707Z,11.02
2023-02-24T03:28:29.160Z,10.60
2023-02-24T03:33:49.293Z,10.69
2023-02-24T03:38:50.616Z,10.81
2023-02-24T03:43:52.106Z,10.84
2023-02-24T03:49:02.854Z,10.82
2023-02-24T03:54:42.782Z,10.85
2023-02-24T04:00:22.757Z,10.52
2023-02-24T04:05:27.483Z,10.49
2023-02-24T04:10:39.317Z,10.35
2023-02-24T04:15:48.467Z,10.35
2023-02-24T04:20:52.906Z,10.45
2023-02-24T04:25:57.868Z,10.53
2023-02-24T04:31:09.944Z,10.45
2023-02-24T04:36:12.791Z,10.42
2023-02-24T04:41:21.189Z,10.52
2023-02-24T04:46:23.278Z,10.64
2023-02-24T04:51:24.760Z,10.73
2023-02-24T04:56:26.073Z,10.85
2023-02-24T05:01:27.387Z,10.94
2023-02-24T05:06:28.788Z,10.90
2023-02-24T05:11:34.733Z,10.94
2023-02-24T05:16:37.629Z,10.87
2023-02-24T05:21:38.985Z,10.87
2023-02-24T05:26:43.378Z,10.91
2023-02-24T05:31:45.629Z,10.82
2023-02-24T05:36:49.045Z,10.77
2023-02-24T05:41:50.918Z,10.66
2023-02-24T05:47:00.767Z,10.69
2023-02-24T05:52:08.663Z,10.60
2023-02-24T05:57:16.939Z,10.60
2023-02-24T06:02:27.248Z,10.41
2023-02-24T06:07:34.389Z,10.15
2023-02-24T06:12:35.997Z,10.02
2023-02-24T06:17:37.626Z,9.83
2023-02-24T06:22:42.271Z,9.80
2023-02-24T06:27:43.746Z,9.73
2023-02-24T06:32:45.207Z,9.80
2023-02-24T06:37:47.214Z,9.92
2023-02-24T06:42:50.470Z,10.15
2023-02-24T06:47:52.208Z,10.27
2023-02-24T06:53:00.607Z,10.26
2023-02-24T06:58:04.795Z,10.10
2023-02-24T07:03:15.417Z,10.27
2023-02-24T07:08:19.036Z,10.43
2023-02-24T07:13:20.433Z,10.42
2023-02-24T07:18:22.875Z,10.36
2023-02-24T07:23:24.310Z,10.43
2023-02-24T07:28:25.646Z,10.44
2023-02-24T07:33:27.931Z,10.39
2023-02-24T07:38:29.350Z,10.58
2023-02-24T07:43:30.733Z,10.72
2023-02-24T07:48:32.031Z,10.46
2023-02-24T07:53:33.498Z,10.46
2023-02-24T07:58:34.821Z,10.59
2023-02-24T08:03:41.137Z,10.48
2023-02-24T08:08:58.145Z,10.64
2023-02-24T08:14:02.486Z,10.69
2023-02-24T08:19:03.911Z,10.67
2023-02-24T08:24:05.943Z,10.93
2023-02-24T08:29:07.356Z,10.89
2023-02-24T08:34:08.768Z,11.05
2023-02-24T08:39:10.149Z,11.04
2023-02-24T08:44:12.785Z,11.18
2023-02-24T08:49:16.949Z,11.05
2023-02-24T08:54:27.023Z,11.15
2023-02-24T08:59:37.758Z,10.95
2023-02-24T09:04:39.719Z,10.76
2023-02-24T09:09:42.450Z,10.64
2023-02-24T09:14:43.870Z,10.58
2023-02-24T09:19:47.980Z,10.71
2023-02-24T09:24:51.032Z,10.55
2023-02-24T09:29:52.471Z,10.73
2023-02-24T09:34:53.910Z,10.71
2023-02-24T09:39:57.873Z,10.80
2023-02-24T09:45:11.388Z,10.67
2023-02-24T09:50:48.276Z,10.66
2023-02-24T09:56:05.283Z,10.78
2023-02-24T10:01:45.592Z,10.81
2023-02-24T10:07:02.938Z,11.04
2023-02-24T10:12:23.970Z,11.11
2023-02-24T10:17:39.975Z,10.99
2023-02-24T10:22:54.056Z,11.19
2023-02-24T10:28:20.740Z,11.28
2023-02-24T10:33:30.209Z,11.74
2023-02-24T10:38:33.952Z,12.09
2023-02-24T10:43:45.332Z,11.81
2023-02-24T10:49:01.670Z,11.96
2023-02-24T10:54:31.302Z,11.97
2023-02-24T10:59:58.256Z,11.98
2023-02-24T11:05:38.681Z,12.00
2023-02-24T11:10:53.132Z,11.73
2023-02-24T11:16:14.586Z,11.57
2023-02-24T11:21:16.308Z,11.37
2023-02-24T11:26:23.472Z,11.64
2023-02-24T11:31:42.695Z,11.52
2023-02-24T11:37:16.901Z,11.61
2023-02-24T11:42:31.399Z,11.59
2023-02-24T11:47:47.796Z,11.52
2023-02-24T11:52:51.845Z,11.54
2023-02-24T11:57:59.179Z,11.70
2023-02-24T12:03:18.182Z,11.45
2023-02-24T12:08:31.883Z,11.50
2023-02-24T12:13:39.742Z,11.35
2023-02-24T12:18:47.919Z,11.13
2023-02-24T12:23:53.557Z,11.22
2023-02-24T12:29:48.491Z,11.13
2023-02-24T12:35:06.772Z,11.00
2023-02-24T12:40:27.348Z,10.85
2023-02-24T12:45:48.091Z,10.86
2023-02-24T12:51:09.733Z,10.66
2023-02-24T12:56:19.945Z,10.87
2023-02-24T13:01:56.775Z,10.80
2023-02-24T13:07:36.949Z,10.54
2023-02-24T13:12:47.330Z,10.66
2023-02-24T13:17:53.504Z,10.77
2023-02-24T13:22:55.807Z,10.73
2023-02-24T13:28:01.195Z,10.74
2023-02-24T13:33:21.693Z,10.85
2023-02-24T13:38:35.346Z,10.91
2023-02-24T13:43:36.800Z,10.82
2023-02-24T13:49:07.506Z,10.71
2023-02-24T13:54:39.835Z,10.99
2023-02-24T13:59:53.048Z,11.11
2023-02-24T14:04:57.680Z,11.00
2023-02-24T14:10:05.396Z,10.83
2023-02-24T14:15:10.571Z,10.75
2023-02-24T14:20:18.908Z,10.80
2023-02-24T14:25:24.712Z,10.98
2023-02-24T14:30:31.698Z,10.67
2023-02-24T14:35:34.789Z,10.58
2023-02-24T14:40:36.149Z,10.45
2023-02-24T14:45:49.009Z,10.42
2023-02-24T14:50:50.710Z,10.41
2023-02-24T14:55:56.425Z,10.40
2023-02-24T15:01:05.737Z,10.36
2023-02-24T15:06:15.436Z,10.27
2023-02-24T15:11:16.705Z,10.14
2023-02-24T15:16:25.569Z,10.21
2023-02-24T15:21:54.026Z,10.16
2023-02-24T15:27:00.967Z,10.12
2023-02-24T15:32:06.798Z,10.17
2023-02-24T15:37:26.331Z,10.15
2023-02-24T15:42:34.484Z,10.13
2023-02-24T15:47:46.054Z,10.18
2023-02-24T15:52:47.889Z,10.12
2023-02-24T15:57:58.371Z,10.10
2023-02-24T17:01:25.303Z,7.42
2023-02-24T17:06:27.552Z,7.29
2023-02-24T17:11:29.187Z,7.19
2023-02-24T17:16:30.608Z,7.18
2023-02-24T17:21:31.933Z,7.19
2023-02-24T17:26:33.274Z,7.05
2023-02-24T17:31:34.828Z,6.99
2023-02-24T17:36:36.248Z,6.87
2023-02-24T17:41:37.605Z,6.83
2023-02-24T17:46:39.098Z,6.64
2023-02-24T17:51:40.534Z,6.64
2023-02-24T17:56:41.933Z,6.60
2023-02-24T18:01:43.270Z,6.58
2023-02-24T18:06:44.970Z,6.51
2023-02-24T18:11:47.673Z,6.54
2023-02-24T18:16:49.065Z,6.66
2023-02-24T18:21:50.410Z,6.76
2023-02-24T18:26:51.749Z,6.75
2023-02-24T18:31:53.268Z,6.80
2023-02-24T18:36:54.896Z,6.78
2023-02-24T18:41:58.275Z,6.88
2023-02-24T18:47:00.921Z,6.93
2023-02-24T18:52:02.455Z,6.95
2023-02-24T18:57:03.943Z,6.91
2023-02-24T19:02:05.344Z,6.91
2023-02-24T19:07:07.565Z,6.99
2023-02-24T19:12:09.045Z,7.08
2023-02-24T19:17:10.427Z,7.20
2023-02-24T19:22:11.938Z,7.31
2023-02-24T19:27:13.952Z,7.46
2023-02-24T19:32:15.447Z,7.54
2023-02-24T19:37:16.867Z,7.66
2023-02-24T19:42:18.244Z,7.85
2023-02-24T19:47:19.690Z,7.83
2023-02-24T19:52:21.086Z,7.83
2023-02-24T19:57:22.478Z,7.65
2023-02-24T20:02:24.282Z,7.55
2023-02-24T20:07:25.697Z,7.44
2023-02-24T20:12:27.506Z,7.42
2023-02-24T20:17:28.946Z,7.37
2023-02-24T20:22:30.449Z,7.33
2023-02-24T20:27:32.558Z,7.31
2023-02-24T20:32:34.086Z,7.29
2023-02-24T20:37:36.080Z,7.23
2023-02-24T20:42:37.424Z,7.22
2023-02-24T20:47:38.873Z,7.21
2023-02-24T20:52:40.279Z,7.24
2023-02-24T20:57:41.648Z,7.21
2023-02-24T21:02:43.586Z,7.26
2023-02-24T21:07:45.313Z,7.28
2023-02-24T21:12:47.250Z,7.34
2023-02-24T21:17:48.615Z,7.32
2023-02-24T21:22:49.964Z,7.33
2023-02-24T21:27:51.338Z,7.39
2023-02-24T21:32:52.705Z,7.35
2023-02-24T21:37:54.052Z,7.45
2023-02-24T21:42:55.401Z,7.42
2023-02-24T21:47:56.797Z,7.30
2023-02-24T21:52:58.120Z,7.19
2023-02-24T21:57:59.523Z,7.18
2023-02-24T22:03:00.934Z,7.20
2023-02-24T22:08:02.447Z,7.21
2023-02-24T22:13:03.805Z,7.09
2023-02-24T22:18:05.228Z,7.13
2023-02-24T22:23:06.537Z,7.02
2023-02-24T22:28:07.950Z,7.00
2023-02-24T22:33:09.441Z,7.00
2023-02-24T22:38:10.864Z,6.95
2023-02-24T22:43:12.234Z,7.03
2023-02-24T22:48:14.325Z,7.02
2023-02-24T22:53:16.367Z,7.03
2023-02-24T22:58:19.721Z,7.00
2023-02-24T23:03:24.600Z,7.06
2023-02-24T23:08:31.009Z,6.97
2023-02-24T23:13:35.319Z,6.92
2023-02-24T23:18:37.724Z,6.93
2023-02-24T23:23:39.065Z,6.90
2023-02-24T23:28:40.816Z,6.92
2023-02-24T23:33:42.159Z,6.87
2023-02-24T23:38:44.796Z,6.90
2023-02-24T23:43:46.216Z,7.02
2023-02-24T23:48:52.387Z,7.11
2023-02-24T23:53:53.723Z,7.13
2023-02-24T23:58:58.652Z,7.15
